Time;durP1;ratioP1;P1;durP2;ratioP2;P2;SDS_P1;SDS_P2;PMS_P1;PMS_P2;Temp;Humidity;BMP_temperature;BMP_pressure;BME280_temperature;BME280_humidity;BME280_pressure;Samples;Min_cycle;Max_cycle;Signal;HPM_P1;HPM_P2
2023/05/29 00:02:03;;;;;;;11.47;7.13;;;15.10;14.90;;;;;;5006280;28;20516;-64
2023/05/29 00:04:29;;;;;;;11.63;6.77;;;15.10;14.90;;;;;;5000365;28;20480;-64
2023/05/29 00:06:56;;;;;;;10.87;7.13;;;15.10;14.90;;;;;;5003719;28;20976;-64
2023/05/29 00:09:23;;;;;;;14.30;7.60;;;15.00;14.90;;;;;;5002661;28;20467;-64
2023/05/29 00:11:52;;;;;;;18.47;7.17;;;15.00;15.00;;;;;;5005497;28;20464;-64
2023/05/29 00:14:19;;;;;;;12.27;7.70;;;15.00;15.20;;;;;;5006755;28;20555;-65
2023/05/29 00:16:46;;;;;;;14.83;8.10;;;14.90;15.30;;;;;;5001576;28;20576;-65
2023/05/29 00:19:13;;;;;;;11.40;7.20;;;14.90;15.40;;;;;;5007050;28;20571;-63
2023/05/29 00:21:40;;;;;;;11.97;7.10;;;14.90;15.70;;;;;;5004552;28;20828;-64
2023/05/29 00:24:07;;;;;;;15.80;7.83;;;14.90;15.60;;;;;;5006932;28;20468;-64
2023/05/29 00:26:33;;;;;;;12.17;7.20;;;14.80;15.90;;;;;;5006133;28;20471;-64
2023/05/29 00:29:01;;;;;;;12.30;7.43;;;14.80;15.90;;;;;;5005322;28;20959;-64
2023/05/29 00:31:28;;;;;;;12.23;7.87;;;14.70;16.10;;;;;;4999186;28;20486;-64
2023/05/29 00:33:55;;;;;;;11.53;6.83;;;14.70;16.10;;;;;;5004728;28;20543;-64
2023/05/29 00:36:22;;;;;;;18.23;8.70;;;14.70;16.20;;;;;;5006381;28;20486;-64
2023/05/29 00:38:49;;;;;;;12.73;8.90;;;14.60;16.30;;;;;;5011903;28;20594;-64
2023/05/29 00:41:16;;;;;;;17.23;8.83;;;14.60;16.30;;;;;;5008766;28;20481;-64
2023/05/29 00:43:43;;;;;;;15.07;8.20;;;14.60;16.60;;;;;;5003039;28;20468;-64
2023/05/29 00:46:14;;;;;;;14.67;8.30;;;14.60;16.50;;;;;;5002385;28;21030;-64
2023/05/29 00:48:42;;;;;;;14.13;9.07;;;14.50;16.90;;;;;;5003881;28;20471;-64
2023/05/29 00:51:10;;;;;;;16.07;9.53;;;14.40;16.90;;;;;;5007856;28;20478;-64
2023/05/29 00:53:38;;;;;;;14.57;8.40;;;14.40;17.60;;;;;;5002855;28;20463;-64
2023/05/29 00:56:05;;;;;;;14.20;8.40;;;14.30;17.70;;;;;;5005751;28;20484;-64
2023/05/29 00:58:32;;;;;;;15.20;8.10;;;14.30;17.80;;;;;;5001876;28;20475;-64
2023/05/29 01:01:00;;;;;;;14.27;8.00;;;14.20;17.80;;;;;;5002496;28;20472;-64
2023/05/29 01:03:28;;;;;;;11.53;6.93;;;14.20;18.10;;;;;;5001688;28;20495;-64
2023/05/29 01:05:55;;;;;;;14.50;8.07;;;14.10;18.30;;;;;;5006669;28;20494;-64
2023/05/29 01:08:22;;;;;;;12.87;8.50;;;14.10;18.10;;;;;;5006075;28;20544;-63
2023/05/29 01:10:51;;;;;;;17.10;8.03;;;14.10;17.80;;;;;;5004071;28;20474;-63
2023/05/29 01:13:20;;;;;;;11.17;7.17;;;14.00;18.00;;;;;;5004310;28;20456;-64
2023/05/29 01:15:53;;;;;;;13.20;6.90;;;14.00;17.90;;;;;;5004831;28;20496;-64
2023/05/29 01:18:35;;;;;;;17.87;7.83;;;13.90;18.10;;;;;;5005659;28;20506;-64
2023/05/29 01:21:09;;;;;;;10.90;6.20;;;13.90;18.10;;;;;;5004975;28;20471;-64
2023/05/29 01:23:52;;;;;;;15.73;8.10;;;13.90;17.90;;;;;;5009916;28;20503;-64
2023/05/29 01:26:33;;;;;;;14.57;8.47;;;13.90;18.00;;;;;;5007745;28;21033;-64
2023/05/29 01:29:03;;;;;;;16.40;8.70;;;13.80;18.30;;;;;;5000321;28;20460;-64
2023/05/29 01:31:30;;;;;;;16.13;9.07;;;13.80;18.30;;;;;;5003934;28;20478;-64
2023/05/29 01:33:59;;;;;;;15.03;8.77;;;13.80;17.90;;;;;;5002158;28;20464;-64
2023/05/29 01:36:26;;;;;;;12.73;7.40;;;13.80;17.90;;;;;;5015423;23;21083;-66
2023/05/29 01:38:55;;;;;;;13.50;8.10;;;13.80;17.80;;;;;;5003735;28;20518;-65
2023/05/29 01:41:24;;;;;;;16.53;8.80;;;13.80;18.00;;;;;;5004432;28;20464;-66
2023/05/29 01:43:53;;;;;;;13.10;8.30;;;13.80;18.00;;;;;;5006877;28;20479;-67
2023/05/29 01:46:21;;;;;;;12.97;6.93;;;13.80;17.90;;;;;;4999242;28;20511;-66
2023/05/29 01:48:48;;;;;;;17.47;8.10;;;13.70;18.80;;;;;;5003502;28;20488;-66
2023/05/29 01:51:15;;;;;;;12.87;6.93;;;13.70;18.30;;;;;;5006885;28;20468;-66
2023/05/29 01:53:43;;;;;;;12.90;7.43;;;13.70;18.40;;;;;;5000616;28;20456;-65
2023/05/29 01:56:10;;;;;;;15.80;7.37;;;13.60;18.60;;;;;;5003863;28;20491;-66
2023/05/29 01:58:38;;;;;;;13.80;7.73;;;13.60;18.60;;;;;;5002134;28;20475;-66
2023/05/29 02:01:07;;;;;;;13.10;6.87;;;13.60;18.40;;;;;;5003588;28;20503;-66
2023/05/29 02:03:34;;;;;;;10.17;6.60;;;13.60;18.50;;;;;;5001255;28;20475;-66
2023/05/29 02:06:01;;;;;;;13.27;7.07;;;13.50;18.30;;;;;;5003128;28;20487;-66
2023/05/29 02:08:28;;;;;;;13.43;6.93;;;13.50;18.50;;;;;;5010174;28;20471;-66
2023/05/29 02:10:55;;;;;;;11.87;6.43;;;13.50;18.40;;;;;;5004117;28;20467;-66
2023/05/29 02:13:22;;;;;;;11.03;6.27;;;13.50;18.40;;;;;;5005150;28;20463;-66
2023/05/29 02:15:49;;;;;;;12.70;6.70;;;13.50;18.60;;;;;;5005464;28;20522;-66
2023/05/29 02:18:18;;;;;;;11.83;6.30;;;13.50;18.60;;;;;;5010615;28;20541;-66
2023/05/29 02:20:45;;;;;;;11.53;6.30;;;13.50;18.50;;;;;;5006764;28;20567;-66
2023/05/29 02:23:12;;;;;;;11.87;6.50;;;13.40;18.50;;;;;;5004664;28;20464;-65
2023/05/29 02:25:40;;;;;;;10.10;6.40;;;13.40;18.80;;;;;;5006741;28;20535;-66
2023/05/29 02:28:06;;;;;;;11.53;6.03;;;13.40;18.70;;;;;;5007280;28;20556;-65
2023/05/29 02:30:33;;;;;;;16.57;6.40;;;13.30;18.70;;;;;;5009224;28;20487;-66
2023/05/29 02:33:00;;;;;;;13.17;6.60;;;13.40;18.70;;;;;;5009195;28;20464;-66
2023/05/29 02:35:28;;;;;;;15.13;6.67;;;13.40;18.70;;;;;;5004623;28;20487;-66
2023/05/29 02:37:55;;;;;;;15.10;6.00;;;13.30;18.70;;;;;;5004334;28;20479;-66
2023/05/29 02:40:22;;;;;;;10.30;5.90;;;13.40;18.90;;;;;;5004706;28;20470;-66
2023/05/29 02:42:50;;;;;;;12.10;6.60;;;13.40;18.50;;;;;;5007464;28;20464;-66
2023/05/29 02:45:17;;;;;;;13.70;5.73;;;13.30;18.70;;;;;;5006072;28;20904;-66
2023/05/29 02:47:44;;;;;;;10.90;6.30;;;13.30;18.60;;;;;;5005254;28;20464;-65
2023/05/29 02:50:14;;;;;;;10.93;6.10;;;13.30;18.80;;;;;;5007824;28;20517;-65
2023/05/29 02:52:42;;;;;;;10.50;5.77;;;13.30;18.90;;;;;;5007034;28;20471;-65
2023/05/29 02:55:09;;;;;;;12.37;6.30;;;13.20;18.90;;;;;;5005164;28;20490;-66
2023/05/29 02:57:36;;;;;;;10.77;6.03;;;13.20;18.70;;;;;;5006885;28;20472;-65
2023/05/29 03:00:05;;;;;;;11.77;5.80;;;13.20;18.70;;;;;;5006149;28;20862;-65
2023/05/29 03:02:32;;;;;;;11.63;6.00;;;13.20;19.00;;;;;;5004722;28;21023;-65
2023/05/29 03:05:00;;;;;;;12.53;6.83;;;13.20;19.00;;;;;;5005872;28;21252;-66
2023/05/29 03:07:27;;;;;;;12.50;7.10;;;13.20;19.30;;;;;;5009468;28;20913;-65
2023/05/29 03:09:55;;;;;;;13.13;7.20;;;13.20;19.30;;;;;;5007572;28;20456;-65
2023/05/29 03:12:22;;;;;;;12.80;7.47;;;13.20;19.30;;;;;;5000926;28;20498;-65
2023/05/29 03:14:49;;;;;;;14.60;7.23;;;13.20;19.10;;;;;;5009652;28;20480;-65
2023/05/29 03:17:15;;;;;;;11.67;6.40;;;13.10;19.50;;;;;;5009044;28;20472;-65
2023/05/29 03:19:42;;;;;;;17.50;7.30;;;13.10;19.60;;;;;;5008371;28;20494;-65
2023/05/29 03:22:09;;;;;;;13.47;7.10;;;13.10;19.50;;;;;;5008161;28;20474;-65
2023/05/29 03:24:36;;;;;;;13.50;7.23;;;13.10;19.60;;;;;;5006001;28;20483;-65
2023/05/29 03:27:04;;;;;;;12.87;7.27;;;13.10;19.70;;;;;;5005608;28;20518;-65
2023/05/29 03:29:32;;;;;;;12.83;6.67;;;13.10;19.80;;;;;;5007964;28;20967;-65
2023/05/29 03:31:58;;;;;;;11.37;6.40;;;13.10;19.50;;;;;;5005664;28;20514;-65
2023/05/29 03:34:25;;;;;;;12.77;7.50;;;13.10;19.90;;;;;;5004007;28;20498;-66
2023/05/29 03:36:52;;;;;;;11.27;7.83;;;13.10;19.90;;;;;;5007706;28;20472;-65
2023/05/29 03:39:19;;;;;;;14.00;7.60;;;13.00;20.10;;;;;;5007418;28;20487;-65
2023/05/29 03:41:46;;;;;;;10.97;6.67;;;13.00;20.10;;;;;;5004353;28;20461;-68
2023/05/29 03:44:14;;;;;;;11.47;6.83;;;13.00;20.10;;;;;;5007132;28;20471;-66
2023/05/29 03:46:41;;;;;;;14.57;7.20;;;13.00;20.00;;;;;;5004094;28;21138;-65
2023/05/29 03:49:07;;;;;;;13.33;7.00;;;13.00;20.10;;;;;;5008561;28;20491;-65
2023/05/29 03:51:35;;;;;;;11.90;6.10;;;13.00;20.00;;;;;;5005189;28;20471;-65
2023/05/29 03:54:02;;;;;;;12.63;6.70;;;13.00;20.10;;;;;;5003060;28;20468;-65
2023/05/29 03:56:28;;;;;;;11.90;6.73;;;13.00;20.10;;;;;;5006465;28;20460;-65
2023/05/29 03:58:55;;;;;;;14.90;8.63;;;13.00;20.10;;;;;;5001497;28;20487;-65
2023/05/29 04:01:23;;;;;;;16.10;7.50;;;13.00;20.10;;;;;;5003404;28;20889;-65
2023/05/29 04:03:50;;;;;;;14.30;6.93;;;13.10;20.00;;;;;;5006730;28;20464;-65
2023/05/29 04:06:17;;;;;;;12.87;6.53;;;13.10;20.00;;;;;;5006242;28;20826;-66
2023/05/29 04:08:44;;;;;;;12.47;6.73;;;13.20;19.90;;;;;;5004824;28;20471;-65
2023/05/29 04:11:13;;;;;;;11.90;6.37;;;13.10;19.80;;;;;;5004702;28;20459;-65
2023/05/29 04:13:40;;;;;;;11.63;6.77;;;13.20;19.70;;;;;;5004752;28;20522;-65
2023/05/29 04:16:07;;;;;;;11.30;7.50;;;13.20;19.50;;;;;;5007900;28;20491;-65
2023/05/29 04:18:35;;;;;;;14.57;8.87;;;13.30;19.60;;;;;;5005946;28;20474;-65
2023/05/29 04:21:02;;;;;;;12.93;7.20;;;13.40;19.40;;;;;;5001573;28;20945;-65
2023/05/29 04:23:29;;;;;;;11.50;7.43;;;13.40;19.40;;;;;;5006663;28;20483;-65
2023/05/29 04:25:56;;;;;;;13.23;6.57;;;13.60;19.10;;;;;;5006032;28;20491;-65
2023/05/29 04:28:23;;;;;;;12.20;6.30;;;14.10;18.60;;;;;;5005396;28;21048;-66
2023/05/29 04:30:50;;;;;;;13.53;5.73;;;15.10;16.70;;;;;;5004031;28;20582;-65
2023/05/29 04:33:20;;;;;;;10.67;5.90;;;16.00;14.80;;;;;;5007244;28;20464;-65
2023/05/29 04:35:49;;;;;;;10.20;5.50;;;16.80;13.30;;;;;;5002561;28;20489;-66
2023/05/29 04:38:16;;;;;;;9.50;6.37;;;17.60;11.60;;;;;;5000960;28;20997;-66
2023/05/29 04:40:44;;;;;;;11.50;6.70;;;18.30;10.10;;;;;;5004645;28;20512;-65
2023/05/29 04:43:11;;;;;;;11.63;6.80;;;18.60;8.90;;;;;;5001056;28;20470;-66
2023/05/29 04:45:37;;;;;;;10.83;6.10;;;18.30;8.60;;;;;;5006247;28;20480;-68
2023/05/29 04:48:04;;;;;;;14.07;7.00;;;17.70;9.50;;;;;;5005781;28;20495;-66
2023/05/29 04:50:32;;;;;;;11.53;6.07;;;17.70;10.40;;;;;;5004978;28;20460;-66
2023/05/29 04:53:00;;;;;;;14.33;6.00;;;18.70;9.40;;;;;;5007216;28;20860;-66
2023/05/29 04:55:27;;;;;;;11.53;5.53;;;20.00;7.10;;;;;;5006610;28;20476;-66
2023/05/29 04:57:54;;;;;;;15.73;6.80;;;21.10;5.00;;;;;;5006924;28;20463;-66
2023/05/29 05:00:22;;;;;;;10.07;6.03;;;22.20;2.80;;;;;;5003927;28;20494;-66
2023/05/29 05:02:50;;;;;;;12.57;6.13;;;23.10;1.30;;;;;;5002416;28;20587;-66
2023/05/29 05:05:17;;;;;;;10.90;5.73;;;24.00;1.00;;;;;;5000275;28;20479;-66
2023/05/29 05:07:44;;;;;;;7.83;4.90;;;24.80;1.00;;;;;;5006830;28;20460;-66
2023/05/29 05:10:12;;;;;;;12.80;6.03;;;25.60;1.00;;;;;;5005654;28;20463;-66
2023/05/29 05:12:39;;;;;;;9.60;6.10;;;26.20;1.00;;;;;;5006203;28;20546;-66
2023/05/29 05:15:07;;;;;;;11.17;6.27;;;26.90;1.00;;;;;;5006264;28;20804;-66
2023/05/29 05:17:34;;;;;;;9.13;4.70;;;27.50;1.00;;;;;;5004757;28;20893;-66
2023/05/29 05:20:00;;;;;;;8.40;5.17;;;28.20;1.00;;;;;;5001432;28;20480;-66
2023/05/29 05:22:27;;;;;;;9.33;5.40;;;29.00;1.00;;;;;;5004658;28;20463;-66
2023/05/29 05:24:54;;;;;;;9.33;5.57;;;29.70;1.00;;;;;;5003442;28;20487;-66
2023/05/29 05:27:22;;;;;;;8.60;5.40;;;30.40;1.00;;;;;;5005332;28;20471;-66
2023/05/29 05:29:49;;;;;;;9.00;5.60;;;30.90;1.00;;;;;;5002900;28;20456;-66
2023/05/29 05:32:15;;;;;;;9.30;5.70;;;31.60;1.00;;;;;;5005245;28;20478;-66
2023/05/29 05:34:42;;;;;;;8.33;6.00;;;32.10;1.00;;;;;;4997053;28;20488;-66
2023/05/29 05:37:09;;;;;;;8.77;5.73;;;32.60;1.00;;;;;;5003037;28;20475;-66
2023/05/29 05:39:36;;;;;;;9.77;5.90;;;33.00;1.00;;;;;;5003575;28;20492;-66
2023/05/29 05:42:03;;;;;;;9.90;5.77;;;33.50;1.00;;;;;;5008205;28;20757;-66
2023/05/29 05:44:31;;;;;;;10.97;5.57;;;34.00;1.00;;;;;;5006515;28;20499;-66
2023/05/29 05:46:58;;;;;;;11.40;6.20;;;34.40;1.00;;;;;;5010320;28;20464;-67
2023/05/29 05:49:25;;;;;;;11.70;6.10;;;34.90;1.00;;;;;;5009222;28;20467;-67
2023/05/29 05:51:51;;;;;;;9.80;5.60;;;35.30;1.00;;;;;;5008802;28;20828;-67
2023/05/29 05:54:18;;;;;;;12.17;5.30;;;36.00;1.00;;;;;;5003210;28;20464;-68
2023/05/29 05:56:45;;;;;;;7.37;5.40;;;36.70;1.00;;;;;;5008862;28;20471;-67
2023/05/29 05:59:12;;;;;;;9.30;5.50;;;37.30;1.00;;;;;;5008693;28;20486;-67
2023/05/29 06:01:41;;;;;;;7.70;4.97;;;38.10;1.00;;;;;;5007231;28;20476;-67
2023/05/29 06:04:08;;;;;;;9.63;6.17;;;38.60;1.00;;;;;;5004599;28;20494;-68
2023/05/29 06:06:35;;;;;;;10.93;6.10;;;39.10;1.00;;;;;;5005982;28;20498;-67
2023/05/29 06:09:04;;;;;;;8.93;6.17;;;39.70;1.00;;;;;;5004570;28;20820;-68
2023/05/29 06:11:31;;;;;;;8.90;5.60;;;40.20;1.00;;;;;;5008072;28;20495;-67
2023/05/29 06:13:58;;;;;;;8.90;5.53;;;40.70;1.00;;;;;;5004497;28;20544;-67
2023/05/29 06:16:25;;;;;;;9.53;6.07;;;41.00;1.00;;;;;;5005329;28;20843;-67
2023/05/29 06:18:53;;;;;;;9.70;6.60;;;41.50;1.00;;;;;;5007216;28;20460;-68
2023/05/29 06:21:20;;;;;;;8.60;5.70;;;41.80;1.00;;;;;;5007270;28;21249;-67
2023/05/29 06:23:46;;;;;;;8.03;4.80;;;42.20;1.00;;;;;;5007379;28;20463;-68
2023/05/29 06:26:15;;;;;;;8.70;5.10;;;42.70;1.00;;;;;;5005142;28;20594;-69
2023/05/29 06:28:42;;;;;;;9.90;5.50;;;43.10;1.00;;;;;;5006128;28;20547;-67
2023/05/29 06:31:09;;;;;;;10.47;5.77;;;43.50;1.00;;;;;;5003787;28;20476;-68
2023/05/29 06:33:37;;;;;;;9.10;5.70;;;43.90;1.00;;;;;;5006582;28;20464;-68
2023/05/29 06:36:06;;;;;;;8.33;5.90;;;44.50;1.00;;;;;;5002886;28;20516;-67
2023/05/29 06:38:33;;;;;;;9.00;5.83;;;44.90;1.00;;;;;;5002944;28;20801;-70
2023/05/29 06:41:00;;;;;;;9.70;5.90;;;45.30;1.00;;;;;;5007567;28;20495;-70
2023/05/29 06:43:27;;;;;;;8.10;6.00;;;45.40;1.00;;;;;;5007851;28;20479;-70
2023/05/29 06:45:54;;;;;;;10.60;5.90;;;45.80;1.00;;;;;;5007061;28;20488;-70
2023/05/29 06:48:21;;;;;;;10.30;6.40;;;46.20;1.00;;;;;;5000626;28;20471;-70
2023/05/29 06:50:48;;;;;;;7.20;5.63;;;46.60;1.00;;;;;;5005776;28;20533;-70
2023/05/29 06:53:16;;;;;;;9.93;6.33;;;46.90;1.00;;;;;;5007039;28;20464;-70
2023/05/29 06:55:43;;;;;;;9.57;5.90;;;47.10;1.00;;;;;;5008237;28;20488;-69
2023/05/29 06:58:09;;;;;;;9.10;5.93;;;47.30;1.00;;;;;;5004224;28;20464;-70
2023/05/29 07:00:36;;;;;;;6.60;5.03;;;47.10;1.00;;;;;;5008003;28;20464;-69
2023/05/29 07:03:03;;;;;;;7.50;5.40;;;47.30;1.00;;;;;;5007979;28;20475;-69
2023/05/29 07:05:30;;;;;;;7.20;5.03;;;47.80;1.00;;;;;;5007845;28;20488;-71
2023/05/29 07:07:56;;;;;;;9.80;5.50;;;48.30;1.00;;;;;;5010389;28;20471;-70
2023/05/29 07:10:24;;;;;;;7.30;5.30;;;48.70;1.00;;;;;;5006466;28;20846;-70
2023/05/29 07:12:51;;;;;;;8.07;6.23;;;48.70;1.00;;;;;;5005046;28;20467;-69
2023/05/29 07:15:18;;;;;;;7.63;5.50;;;48.70;1.00;;;;;;4998547;28;20487;-71
2023/05/29 07:17:45;;;;;;;8.10;5.30;;;48.70;1.00;;;;;;5007390;28;20476;-71
2023/05/29 07:20:12;;;;;;;8.77;5.30;;;48.50;1.00;;;;;;5008264;28;20484;-67
2023/05/29 07:22:39;;;;;;;7.50;5.27;;;48.70;1.00;;;;;;5005668;28;20459;-68
2023/05/29 07:25:07;;;;;;;8.50;5.20;;;49.20;1.00;;;;;;5006426;28;20483;-68
2023/05/29 07:27:35;;;;;;;9.90;6.17;;;49.50;1.00;;;;;;5008034;28;20468;-68
2023/05/29 07:30:02;;;;;;;8.43;5.53;;;49.80;1.00;;;;;;5003419;28;20455;-69
2023/05/29 07:32:29;;;;;;;6.97;5.10;;;50.20;1.00;;;;;;5004572;28;20829;-69
2023/05/29 07:34:55;;;;;;;7.67;5.43;;;50.40;1.00;;;;;;5000896;28;20488;-70
2023/05/29 07:37:22;;;;;;;8.60;5.60;;;50.50;1.00;;;;;;5004106;28;20973;-68
2023/05/29 07:39:49;;;;;;;8.00;5.40;;;50.60;1.00;;;;;;5010554;28;20479;-68
2023/05/29 07:42:15;;;;;;;8.30;5.47;;;49.90;1.00;;;;;;4999361;28;20836;-67
2023/05/29 07:44:44;;;;;;;8.17;5.50;;;49.00;1.00;;;;;;5004496;28;20492;-67
2023/05/29 07:47:11;;;;;;;9.63;5.20;;;49.10;1.00;;;;;;5004179;28;20471;-70
2023/05/29 07:49:38;;;;;;;6.73;5.40;;;49.80;1.00;;;;;;5008656;28;20518;-70
2023/05/29 07:52:05;;;;;;;7.50;4.90;;;50.30;1.00;;;;;;5002572;28;20457;-69
2023/05/29 07:54:32;;;;;;;8.47;5.00;;;50.30;1.00;;;;;;5003484;28;20502;-69
2023/05/29 07:56:59;;;;;;;6.37;5.10;;;50.70;1.00;;;;;;5000522;28;20457;-69
2023/05/29 07:59:26;;;;;;;8.43;5.47;;;51.00;1.00;;;;;;5005976;28;20460;-70
2023/05/29 08:01:57;;;;;;;7.20;5.10;;;51.30;1.00;;;;;;5001833;28;20511;-70
2023/05/29 08:04:24;;;;;;;9.63;4.80;;;51.70;1.00;;;;;;5002349;28;20522;-69
2023/05/29 08:06:51;;;;;;;7.63;4.83;;;52.00;1.00;;;;;;5000302;28;20471;-70
2023/05/29 08:09:18;;;;;;;6.63;4.53;;;52.10;1.00;;;;;;5001099;28;20467;-69
2023/05/29 08:11:46;;;;;;;7.60;4.63;;;52.10;1.00;;;;;;4999720;28;21034;-70
2023/05/29 08:14:12;;;;;;;6.13;4.50;;;52.40;1.00;;;;;;5000398;28;21038;-69
2023/05/29 08:16:39;;;;;;;8.10;5.33;;;52.70;1.00;;;;;;5003005;28;20471;-69
2023/05/29 08:19:07;;;;;;;6.10;4.80;;;52.80;1.00;;;;;;5004056;28;20850;-70
2023/05/29 08:21:34;;;;;;;8.73;4.13;;;52.90;1.00;;;;;;5003700;28;20487;-70
2023/05/29 08:24:04;;;;;;;8.40;4.60;;;52.60;1.00;;;;;;5002834;28;20558;-70
2023/05/29 08:26:31;;;;;;;9.20;4.67;;;51.80;1.00;;;;;;5001914;28;20455;-69
2023/05/29 08:28:58;;;;;;;6.73;4.63;;;51.90;1.00;;;;;;5007020;28;20471;-70
2023/05/29 08:31:25;;;;;;;8.30;4.63;;;52.50;1.00;;;;;;5017652;22;21050;-67
2023/05/29 08:33:52;;;;;;;6.63;4.70;;;53.00;1.00;;;;;;5007759;28;20495;-67
2023/05/29 08:36:21;;;;;;;8.60;4.63;;;53.40;1.00;;;;;;5009500;28;20483;-67
2023/05/29 08:38:47;;;;;;;8.50;5.07;;;53.10;1.00;;;;;;5002797;28;20467;-67
2023/05/29 08:41:20;;;;;;;7.30;4.63;;;52.90;1.00;;;;;;5001321;28;20475;-68
2023/05/29 08:43:49;;;;;;;8.20;4.77;;;53.10;1.00;;;;;;5001594;28;20517;-69
2023/05/29 08:46:19;;;;;;;10.13;4.53;;;53.50;1.00;;;;;;5002894;28;20502;-68
2023/05/29 08:48:49;;;;;;;5.87;4.17;;;53.80;1.00;;;;;;5004843;28;20491;-68
2023/05/29 08:51:20;;;;;;;6.30;4.77;;;53.80;1.00;;;;;;5004254;28;20851;-68
2023/05/29 08:53:48;;;;;;;7.87;4.83;;;54.00;1.00;;;;;;5009197;28;20992;-68
2023/05/29 08:56:15;;;;;;;6.07;4.00;;;53.90;1.00;;;;;;5003061;28;20491;-68
2023/05/29 08:58:43;;;;;;;5.93;4.40;;;53.90;1.00;;;;;;5011780;28;20475;-69
2023/05/29 09:01:10;;;;;;;6.70;4.57;;;54.40;1.00;;;;;;5003525;28;20471;-68
2023/05/29 09:03:37;;;;;;;8.10;4.33;;;54.70;1.00;;;;;;5008591;28;20464;-69
2023/05/29 09:06:07;;;;;;;6.80;4.30;;;54.90;1.00;;;;;;5008020;28;20910;-68
2023/05/29 09:08:34;;;;;;;7.90;4.43;;;55.00;1.00;;;;;;5008151;28;20475;-68
2023/05/29 09:11:02;;;;;;;7.23;3.80;;;54.80;1.00;;;;;;5000324;28;21142;-68
2023/05/29 09:13:29;;;;;;;7.30;4.43;;;54.80;1.00;;;;;;5008683;28;20471;-69
2023/05/29 09:15:58;;;;;;;7.00;4.40;;;54.40;1.00;;;;;;5007952;28;21018;-68
2023/05/29 09:18:29;;;;;;;5.93;4.60;;;53.50;1.00;;;;;;5003480;28;20479;-68
2023/05/29 09:20:56;;;;;;;8.90;5.23;;;52.90;1.00;;;;;;5005498;28;20485;-69
2023/05/29 09:23:23;;;;;;;6.97;4.50;;;52.60;1.00;;;;;;5003385;28;20463;-68
2023/05/29 09:25:54;;;;;;;6.37;4.10;;;52.50;1.00;;;;;;5006033;28;20483;-68
2023/05/29 09:28:25;;;;;;;7.10;4.57;;;51.80;1.00;;;;;;5007871;28;20467;-69
2023/05/29 09:30:52;;;;;;;8.40;4.83;;;50.10;1.00;;;;;;5008876;28;20472;-68
2023/05/29 09:33:19;;;;;;;6.90;4.43;;;47.90;1.00;;;;;;5011631;28;20467;-68
2023/05/29 09:35:47;;;;;;;9.07;5.10;;;45.70;1.00;;;;;;5008340;28;20509;-68
2023/05/29 09:38:15;;;;;;;6.83;3.93;;;43.70;1.00;;;;;;5006494;28;20461;-68
2023/05/29 09:40:45;;;;;;;7.20;3.90;;;42.00;1.00;;;;;;5006512;28;20487;-68
2023/05/29 09:43:13;;;;;;;7.53;4.93;;;40.20;1.00;;;;;;5009585;28;20478;-68
2023/05/29 09:45:43;;;;;;;7.90;3.97;;;38.70;1.00;;;;;;5006095;28;20490;-67
2023/05/29 09:48:17;;;;;;;7.83;4.23;;;37.20;1.00;;;;;;5007904;28;20467;-68
2023/05/29 09:50:47;;;;;;;8.20;4.40;;;36.00;1.00;;;;;;5009331;28;20454;-68
2023/05/29 09:53:21;;;;;;;8.33;4.53;;;34.90;1.00;;;;;;5011782;28;20939;-67
2023/05/29 09:55:50;;;;;;;7.93;4.20;;;33.80;1.00;;;;;;5009145;28;20478;-67
2023/05/29 09:58:18;;;;;;;8.00;4.60;;;33.10;1.00;;;;;;5008114;28;20546;-67
2023/05/29 10:00:47;;;;;;;7.40;4.30;;;32.40;1.00;;;;;;5008313;28;20468;-68
2023/05/29 10:03:14;;;;;;;7.10;3.83;;;31.90;1.00;;;;;;5009905;28;20464;-68
2023/05/29 10:05:41;;;;;;;11.33;4.47;;;31.30;1.00;;;;;;5001433;28;20487;-68
2023/05/29 10:08:12;;;;;;;6.77;4.13;;;30.80;1.00;;;;;;5002467;28;20467;-68
2023/05/29 10:10:42;;;;;;;8.07;3.67;;;30.30;1.00;;;;;;5009724;28;20468;-67
2023/05/29 10:13:13;;;;;;;7.30;3.90;;;29.80;1.00;;;;;;5011708;28;20467;-67
2023/05/29 10:15:41;;;;;;;8.07;3.80;;;29.50;1.00;;;;;;5021401;28;20926;-67
2023/05/29 10:18:21;;;;;;;7.63;3.90;;;29.00;1.00;;;;;;5010904;28;20463;-68
2023/05/29 10:20:51;;;;;;;12.13;5.03;;;28.60;1.00;;;;;;5006346;28;20480;-67
2023/05/29 10:23:22;;;;;;;8.20;3.90;;;28.40;1.00;;;;;;5007612;28;20521;-68
2023/05/29 10:25:52;;;;;;;8.47;4.90;;;28.20;1.00;;;;;;5004877;28;20480;-68
2023/05/29 10:28:19;;;;;;;8.13;4.30;;;28.10;1.00;;;;;;5009249;28;20496;-68
2023/05/29 10:30:52;;;;;;;7.70;3.83;;;28.00;1.00;;;;;;5010614;28;20827;-68
2023/05/29 10:33:49;;;;;;;6.40;3.30;;;27.90;1.00;;;;;;5009312;28;20515;-67
2023/05/29 10:36:21;;;;;;;8.10;3.40;;;27.90;1.00;;;;;;5011809;28;21129;-68
2023/05/29 10:38:49;;;;;;;7.53;3.40;;;27.70;1.00;;;;;;5008645;28;20837;-68
2023/05/29 10:41:29;;;;;;;7.30;4.13;;;27.60;1.00;;;;;;5012388;28;20483;-68
2023/05/29 10:43:57;;;;;;;6.60;3.20;;;27.60;1.00;;;;;;5006958;28;20474;-68
2023/05/29 10:47:03;;;;;;;7.27;3.60;;;27.50;1.00;;;;;;5013313;28;20482;-67
2023/05/29 10:49:31;;;;;;;6.23;3.40;;;27.30;1.00;;;;;;5007512;28;20460;-68
2023/05/29 10:51:59;;;;;;;7.57;3.17;;;27.30;1.00;;;;;;5011914;28;20464;-67
2023/05/29 10:54:27;;;;;;;6.30;3.00;;;27.00;1.00;;;;;;5004333;28;20507;-66
2023/05/29 10:56:56;;;;;;;6.90;2.60;;;27.00;1.00;;;;;;5007273;28;20582;-67
2023/05/29 10:59:26;;;;;;;7.93;2.93;;;26.90;1.00;;;;;;5010446;28;20834;-66
2023/05/29 11:01:53;;;;;;;7.00;3.20;;;26.90;1.00;;;;;;5008728;28;20476;-67
2023/05/29 11:04:30;;;;;;;5.20;2.63;;;26.80;1.00;;;;;;5009246;28;20491;-67
2023/05/29 11:06:59;;;;;;;7.83;3.23;;;26.70;1.00;;;;;;5006579;28;20459;-67
2023/05/29 11:09:30;;;;;;;5.70;2.50;;;26.60;1.00;;;;;;5009118;28;20497;-68
2023/05/29 11:12:25;;;;;;;6.03;2.47;;;26.60;1.00;;;;;;5007945;28;20467;-67
2023/05/29 11:14:56;;;;;;;6.03;2.87;;;26.50;1.00;;;;;;5009370;28;20512;-67
2023/05/29 11:17:30;;;;;;;6.27;2.67;;;26.20;1.00;;;;;;5007033;28;20460;-68
2023/05/29 11:19:58;;;;;;;5.97;2.50;;;25.90;1.00;;;;;;5009462;28;20466;-67
2023/05/29 11:22:34;;;;;;;6.63;2.93;;;25.80;1.00;;;;;;5009840;28;20495;-67
2023/05/29 11:25:02;;;;;;;6.90;3.00;;;25.70;1.00;;;;;;5008721;28;20558;-69
2023/05/29 11:27:30;;;;;;;6.67;2.93;;;25.60;1.00;;;;;;5007120;28;20829;-67
2023/05/29 11:29:57;;;;;;;6.53;2.87;;;25.50;1.00;;;;;;5008816;28;20476;-68
2023/05/29 11:32:28;;;;;;;6.30;3.20;;;25.50;1.00;;;;;;5009343;28;20494;-67
2023/05/29 11:34:57;;;;;;;6.30;2.80;;;25.50;1.00;;;;;;5007745;28;20491;-67
2023/05/29 11:37:24;;;;;;;7.40;2.77;;;25.50;1.00;;;;;;5009345;28;20460;-67
2023/05/29 11:39:53;;;;;;;6.50;2.57;;;25.40;1.00;;;;;;5006892;28;20523;-67
2023/05/29 11:42:19;;;;;;;7.07;3.20;;;25.40;1.00;;;;;;5009517;28;20490;-68
2023/05/29 11:44:46;;;;;;;6.93;3.30;;;25.40;1.00;;;;;;5005838;28;20483;-68
2023/05/29 11:47:14;;;;;;;7.13;2.87;;;25.30;1.00;;;;;;5009698;28;20460;-67
2023/05/29 11:49:41;;;;;;;8.37;3.60;;;25.20;1.00;;;;;;5006868;28;20472;-69
2023/05/29 11:52:09;;;;;;;6.90;3.10;;;25.10;1.00;;;;;;5009485;28;20463;-67
2023/05/29 11:54:36;;;;;;;6.87;2.67;;;25.20;1.00;;;;;;4997438;28;20999;-67
2023/05/29 11:57:05;;;;;;;6.67;3.10;;;25.20;1.00;;;;;;5010916;28;20463;-67
2023/05/29 11:59:32;;;;;;;15.70;3.77;;;25.20;1.00;;;;;;5006577;28;20460;-68
2023/05/29 12:01:59;;;;;;;5.80;2.87;;;25.20;1.00;;;;;;5007287;28;20473;-67
2023/05/29 12:04:26;;;;;;;6.03;2.63;;;25.10;1.00;;;;;;5005166;28;20496;-68
2023/05/29 12:06:53;;;;;;;5.50;2.37;;;25.10;1.00;;;;;;5005573;28;20479;-70
2023/05/29 12:09:27;;;;;;;7.30;3.03;;;25.10;1.00;;;;;;5002843;28;20471;-67
2023/05/29 12:11:55;;;;;;;6.20;2.57;;;25.10;1.00;;;;;;5006702;28;20519;-67
2023/05/29 12:14:23;;;;;;;5.17;2.40;;;25.10;1.00;;;;;;5009433;28;20880;-67
2023/05/29 12:16:50;;;;;;;5.87;2.77;;;25.10;1.00;;;;;;5006135;28;20487;-68
2023/05/29 12:19:17;;;;;;;5.27;2.40;;;25.10;1.00;;;;;;5008411;28;20467;-67
2023/05/29 12:21:44;;;;;;;7.30;2.80;;;25.00;1.00;;;;;;5006627;28;20511;-67
2023/05/29 12:24:11;;;;;;;6.73;2.80;;;25.00;1.00;;;;;;5006417;28;20470;-66
2023/05/29 12:26:38;;;;;;;5.97;2.70;;;24.90;1.00;;;;;;5006638;28;20838;-67
2023/05/29 12:29:05;;;;;;;9.80;3.13;;;24.90;1.00;;;;;;5008643;28;20468;-67
2023/05/29 12:31:33;;;;;;;7.90;3.93;;;24.90;1.00;;;;;;5003370;28;20487;-67
2023/05/29 12:34:09;;;;;;;7.10;3.23;;;24.90;1.00;;;;;;5005916;28;20938;-67
2023/05/29 12:36:37;;;;;;;5.60;2.80;;;24.90;1.00;;;;;;5008556;28;20470;-68
2023/05/29 12:39:08;;;;;;;6.70;2.77;;;24.80;1.00;;;;;;5006586;28;20467;-68
2023/05/29 12:41:36;;;;;;;7.40;3.30;;;24.90;1.00;;;;;;5008762;28;20490;-66
2023/05/29 12:44:03;;;;;;;6.47;3.30;;;24.80;1.00;;;;;;5006066;28;20463;-67
2023/05/29 12:46:38;;;;;;;6.10;2.43;;;24.90;1.00;;;;;;5004644;28;20949;-67
2023/05/29 12:49:13;;;;;;;6.47;3.10;;;24.90;1.00;;;;;;4998080;28;20474;-68
2023/05/29 12:51:42;;;;;;;8.20;3.30;;;24.90;1.00;;;;;;5002055;28;20530;-68
2023/05/29 12:54:11;;;;;;;8.23;3.30;;;24.90;1.00;;;;;;5007450;28;20467;-67